createdAt,value
2023-05-14T00:04:02.445Z,5.00
2023-05-14T00:09:06.444Z,4.93
2023-05-14T00:14:10.012Z,4.85
2023-05-14T00:19:15.905Z,4.95
2023-05-14T00:24:19.727Z,4.78
2023-05-14T00:29:23.052Z,4.75
2023-05-14T00:34:27.705Z,4.30
2023-05-14T00:39:31.376Z,4.70
2023-05-14T00:44:34.952Z,4.70
2023-05-14T00:49:41.761Z,4.97
2023-05-14T00:54:47.350Z,4.05
2023-05-14T01:04:56.927Z,4.35
2023-05-14T01:10:04.383Z,4.90
2023-05-14T01:15:12.389Z,4.60
2023-05-14T01:20:17.808Z,4.45
2023-05-14T01:25:22.737Z,4.82
2023-05-14T01:30:32.968Z,4.68
2023-05-14T01:35:37.211Z,4.28
2023-05-14T01:40:43.697Z,5.30
2023-05-14T01:45:47.817Z,5.05
2023-05-14T01:50:51.878Z,4.97
2023-05-14T01:55:56.855Z,5.40
2023-05-14T02:01:00.518Z,5.22
2023-05-14T02:06:04.187Z,4.93
2023-05-14T02:11:09.260Z,5.43
2023-05-14T02:16:13.368Z,5.25
2023-05-14T02:21:16.950Z,5.85
2023-05-14T02:26:21.708Z,5.22
2023-05-14T02:31:25.449Z,5.70
2023-05-14T02:36:28.869Z,4.93
2023-05-14T02:41:34.105Z,5.13
2023-05-14T02:46:37.864Z,5.75
2023-05-14T02:51:41.147Z,5.30
2023-05-14T02:56:46.296Z,5.63
2023-05-14T03:01:49.979Z,5.00
2023-05-14T03:06:54.188Z,6.40
2023-05-14T03:11:59.455Z,5.75
2023-05-14T03:17:04.296Z,5.90
2023-05-14T03:22:08.030Z,6.25
2023-05-14T03:27:12.992Z,5.75
2023-05-14T03:32:16.769Z,5.82
2023-05-14T03:37:20.536Z,6.68
2023-05-14T03:42:25.634Z,6.03
2023-05-14T03:47:29.379Z,5.80
2023-05-14T03:52:33.997Z,6.27
2023-05-14T03:57:41.898Z,5.55
2023-05-14T04:02:46.592Z,6.13
2023-05-14T04:07:50.377Z,5.30
2023-05-14T04:12:55.885Z,5.63
2023-05-14T04:18:04.435Z,6.13
2023-05-14T04:23:07.781Z,5.88
2023-05-14T04:28:12.752Z,6.15
2023-05-14T04:33:16.549Z,5.82
2023-05-14T04:38:20.223Z,5.70
2023-05-14T04:43:24.987Z,5.35
2023-05-14T04:48:28.541Z,5.40
2023-05-14T04:53:32.301Z,6.03
2023-05-14T04:58:37.297Z,5.28
2023-05-14T05:03:40.998Z,5.22
2023-05-14T05:08:44.693Z,5.10
2023-05-14T05:13:49.833Z,5.93
2023-05-14T05:18:53.590Z,4.90
2023-05-14T05:23:57.238Z,4.95
2023-05-14T05:29:02.058Z,4.88
2023-05-14T05:34:05.907Z,5.90
2023-05-14T05:39:09.550Z,5.88
2023-05-14T05:44:14.478Z,5.57
2023-05-14T05:49:18.066Z,5.55
2023-05-14T05:54:21.680Z,6.15
2023-05-14T05:59:26.770Z,5.85
2023-05-14T06:04:30.388Z,5.47
2023-05-14T06:09:33.727Z,5.32
2023-05-14T06:14:39.546Z,4.70
2023-05-14T06:19:43.194Z,5.63
2023-05-14T06:24:46.806Z,5.43
2023-05-14T06:29:51.778Z,5.55
2023-05-14T06:34:55.426Z,4.82
2023-05-14T06:39:59.108Z,5.53
2023-05-14T06:45:04.261Z,5.20
2023-05-14T06:50:10.741Z,5.40
2023-05-14T06:55:14.491Z,5.45
2023-05-14T07:00:20.827Z,5.25
2023-05-14T07:05:24.452Z,5.07
2023-05-14T07:10:28.102Z,4.90
2023-05-14T07:15:33.203Z,4.95
2023-05-14T07:20:36.835Z,4.57
2023-05-14T07:25:40.477Z,4.72
2023-05-14T07:30:45.408Z,4.15
2023-05-14T07:35:49.138Z,4.00
2023-05-14T07:40:52.846Z,4.38
2023-05-14T07:45:57.863Z,4.40
2023-05-14T07:51:01.751Z,4.68
2023-05-14T07:56:05.755Z,4.03
2023-05-14T08:01:10.398Z,3.70
2023-05-14T08:06:14.097Z,3.75
2023-05-14T08:11:17.529Z,4.32
2023-05-14T08:16:22.519Z,4.43
2023-05-14T08:21:25.973Z,3.90
2023-05-14T08:26:29.564Z,4.10
2023-05-14T08:31:34.504Z,3.92
2023-05-14T08:36:39.364Z,4.18
2023-05-14T08:41:43.313Z,4.57
2023-05-14T08:46:51.144Z,4.70
2023-05-14T08:51:55.385Z,4.20
2023-05-14T08:56:59.382Z,4.10
2023-05-14T09:02:07.102Z,4.57
2023-05-14T09:07:11.758Z,4.45
2023-05-14T09:12:15.426Z,4.68
2023-05-14T09:17:21.015Z,4.43
2023-05-14T09:22:24.618Z,4.60
2023-05-14T09:27:32.194Z,4.18
2023-05-14T09:32:41.433Z,3.28
2023-05-14T09:37:46.728Z,4.03
2023-05-14T09:42:50.852Z,4.78
2023-05-14T09:47:55.811Z,3.67
2023-05-14T09:53:01.796Z,3.10
2023-05-14T09:58:06.287Z,3.47
2023-05-14T10:03:15.284Z,4.03
2023-05-14T10:08:27.243Z,3.65
2023-05-14T10:13:34.127Z,3.50
2023-05-14T10:18:42.625Z,3.05
2023-05-14T10:23:46.697Z,3.08
2023-05-14T10:28:50.602Z,3.77
2023-05-14T10:33:56.325Z,3.40
2023-05-14T10:39:05.557Z,3.25
2023-05-14T10:44:11.436Z,4.10
2023-05-14T10:49:28.919Z,3.63
2023-05-14T10:54:40.187Z,3.80
2023-05-14T10:59:44.777Z,4.40
2023-05-14T11:04:57.914Z,3.47
2023-05-14T11:10:06.495Z,3.38
2023-05-14T11:15:12.072Z,3.47
2023-05-14T11:20:17.886Z,3.15
2023-05-14T11:25:23.374Z,3.45
2023-05-14T11:30:26.915Z,3.58
2023-05-14T11:35:32.560Z,3.47
2023-05-14T11:40:36.221Z,4.25
2023-05-14T11:45:39.915Z,3.80
2023-05-14T11:50:48.945Z,3.95
2023-05-14T11:56:03.394Z,3.90
2023-05-14T12:01:15.449Z,3.55
2023-05-14T12:06:20.667Z,2.95
2023-05-14T12:11:24.366Z,3.28
2023-05-14T12:16:33.994Z,2.63
2023-05-14T12:21:41.636Z,2.10
2023-05-14T12:26:46.382Z,2.15
2023-05-14T12:31:51.732Z,3.15
2023-05-14T12:36:56.764Z,3.08
2023-05-14T12:42:00.328Z,4.03
2023-05-14T12:47:04.013Z,3.67
2023-05-14T12:57:21.099Z,3.67
2023-05-14T13:02:24.759Z,3.25
2023-05-14T13:07:30.532Z,2.90
2023-05-14T13:12:34.208Z,3.22
2023-05-14T13:17:38.028Z,2.40
2023-05-14T13:22:43.197Z,1.60
2023-05-14T13:27:46.986Z,1.88
2023-05-14T13:32:50.702Z,1.80
2023-05-14T13:37:55.628Z,1.70
2023-05-14T13:48:02.096Z,1.98
2023-05-14T13:53:07.217Z,2.63
2023-05-14T13:58:11.135Z,2.10
2023-05-14T14:03:14.832Z,2.70
2023-05-14T14:08:24.017Z,2.50
2023-05-14T14:13:28.188Z,2.58
2023-05-14T14:18:31.866Z,2.22
2023-05-14T14:23:36.800Z,2.35
2023-05-14T14:33:44.604Z,2.35
2023-05-14T14:38:49.493Z,2.25
2023-05-14T14:43:53.200Z,2.58
2023-05-14T14:48:56.906Z,3.40
2023-05-14T14:54:02.173Z,3.35
2023-05-14T14:59:05.801Z,2.88
2023-05-14T15:04:09.517Z,3.30
2023-05-14T15:09:14.651Z,3.10
2023-05-14T15:14:18.232Z,3.53
2023-05-14T15:19:22.245Z,3.05
2023-05-14T15:24:27.504Z,3.53
2023-05-14T15:29:31.176Z,3.20
2023-05-14T15:34:34.896Z,3.40
2023-05-14T15:39:39.502Z,3.50
2023-05-14T15:44:43.060Z,5.25
2023-05-14T15:49:46.636Z,3.65
2023-05-14T15:54:51.899Z,3.50
2023-05-14T15:59:57.158Z,3.60
2023-05-14T16:05:00.744Z,3.00
2023-05-14T16:10:06.563Z,4.28
2023-05-14T16:15:10.701Z,3.53
2023-05-14T16:20:14.136Z,3.57
2023-05-14T16:25:19.387Z,3.95
2023-05-14T16:30:22.869Z,3.20
2023-05-14T16:35:26.397Z,3.85
2023-05-14T16:40:31.051Z,3.83
2023-05-14T16:45:36.880Z,3.53
2023-05-14T16:50:40.187Z,3.92
2023-05-14T16:55:45.202Z,4.32
2023-05-14T17:00:48.763Z,3.72
2023-05-14T17:05:52.511Z,7.22
2023-05-14T17:10:57.469Z,3.60
2023-05-14T17:21:05.910Z,2.60
2023-05-14T17:26:12.105Z,2.83
2023-05-14T17:31:15.759Z,2.65
2023-05-14T17:36:19.099Z,2.25
2023-05-14T17:41:23.652Z,2.00
2023-05-14T17:46:27.062Z,2.20
2023-05-14T17:51:31.122Z,2.08
2023-05-14T17:56:35.895Z,1.90
2023-05-14T18:01:39.134Z,1.80
2023-05-14T18:06:42.393Z,2.28
2023-05-14T18:11:47.167Z,2.05
2023-05-14T18:16:50.518Z,2.13
2023-05-14T18:21:55.516Z,2.20
2023-05-14T18:27:00.794Z,2.40
2023-05-14T18:37:07.849Z,2.33
2023-05-14T18:42:12.564Z,2.42
2023-05-14T18:47:15.841Z,2.70
2023-05-14T18:52:19.160Z,2.55
2023-05-14T18:57:24.092Z,2.80
2023-05-14T19:07:31.974Z,2.55
2023-05-14T19:12:37.016Z,3.03
2023-05-14T19:17:40.459Z,3.63
2023-05-14T19:22:43.691Z,3.13
2023-05-14T19:27:51.032Z,2.75
2023-05-14T19:32:54.217Z,3.13
2023-05-14T19:37:57.489Z,3.47
2023-05-14T19:43:02.664Z,4.13
2023-05-14T19:48:07.185Z,3.28
2023-05-14T19:53:11.352Z,3.57
2023-05-14T19:58:15.992Z,3.15
2023-05-14T20:03:19.245Z,4.30
2023-05-14T20:08:22.498Z,5.80
2023-05-14T20:13:27.045Z,4.60
2023-05-14T20:18:30.364Z,4.83
2023-05-14T20:23:33.665Z,7.05
2023-05-14T20:28:38.261Z,4.18
2023-05-14T20:33:41.445Z,4.23
2023-05-14T20:38:44.591Z,3.70
2023-05-14T20:43:49.197Z,4.25
2023-05-14T20:48:54.742Z,5.37
2023-05-14T20:53:58.309Z,3.75
2023-05-14T20:59:03.222Z,5.00
2023-05-14T21:04:06.978Z,5.03
2023-05-14T21:09:10.872Z,4.07
2023-05-14T21:14:15.840Z,6.40
2023-05-14T21:19:19.193Z,7.13
2023-05-14T21:24:22.462Z,5.78
2023-05-14T21:29:27.681Z,4.50
2023-05-14T21:34:32.035Z,5.23
2023-05-14T21:39:35.372Z,4.95
2023-05-14T21:44:40.003Z,5.35
2023-05-14T21:49:43.260Z,5.20
2023-05-14T21:54:46.453Z,5.25
2023-05-14T21:59:51.055Z,5.55
2023-05-14T22:04:54.901Z,5.38
2023-05-14T22:09:58.929Z,6.30
2023-05-14T22:15:04.275Z,6.82
2023-05-14T22:20:09.348Z,7.15
2023-05-14T22:25:13.088Z,7.65
2023-05-14T22:30:17.991Z,6.45
2023-05-14T22:35:21.770Z,5.65
2023-05-14T22:40:25.336Z,6.38
2023-05-14T22:45:30.389Z,5.65
2023-05-14T22:50:34.167Z,6.43
2023-05-14T22:55:37.918Z,6.20
2023-05-14T23:00:42.540Z,5.97
2023-05-14T23:05:46.131Z,6.38
2023-05-14T23:10:49.343Z,5.95
2023-05-14T23:15:53.934Z,6.45
2023-05-14T23:20:57.573Z,5.88
2023-05-14T23:26:01.112Z,6.68
2023-05-14T23:31:05.751Z,6.72
2023-05-14T23:36:09.766Z,6.90
2023-05-14T23:41:12.965Z,7.43
2023-05-14T23:46:17.577Z,6.95
2023-05-14T23:51:20.872Z,6.87
2023-05-14T23:56:24.183Z,6.65
